Time;durP1;ratioP1;P1;durP2;ratioP2;P2;SDS_P1;SDS_P2;PMS_P1;PMS_P2;Temp;Humidity;BMP_temperature;BMP_pressure;BME280_temperature;BME280_humidity;BME280_pressure;Samples;Min_cycle;Max_cycle;Signal;HPM_P1;HPM_P2
2023/10/19 00:00:44;;;;;;;2.10;1.00;;;13.30;99.90;;;;;;5032938;28;20937;-58
2023/10/19 00:03:11;;;;;;;4.10;0.90;;;13.30;99.90;;;;;;5032816;28;20891;-60
2023/10/19 00:05:37;;;;;;;3.27;1.10;;;13.30;99.90;;;;;;5032371;28;20997;-60
2023/10/19 00:08:06;;;;;;;0.73;0.73;;;13.20;99.90;;;;;;5031995;28;20430;-59
2023/10/19 00:10:35;;;;;;;1.13;1.03;;;13.20;99.90;;;;;;5032482;28;20414;-58
2023/10/19 00:13:08;;;;;;;0.70;0.50;;;13.20;99.90;;;;;;5032381;28;20863;-58
2023/10/19 00:15:51;;;;;;;0.47;0.47;;;13.30;99.90;;;;;;5031840;28;20516;-60
2023/10/19 00:21:18;;;;;;;0.87;0.73;;;13.40;99.90;;;;;;5031988;28;20410;-60
2023/10/19 00:23:47;;;;;;;0.80;0.80;;;13.30;99.90;;;;;;5032056;28;20409;-60
2023/10/19 00:26:20;;;;;;;0.40;0.40;;;13.30;99.90;;;;;;5031650;28;20535;-59
2023/10/19 00:28:49;;;;;;;0.60;0.60;;;13.30;99.90;;;;;;5031790;28;20402;-60
2023/10/19 00:31:15;;;;;;;1.27;1.17;;;13.40;99.90;;;;;;5031875;28;20397;-59
2023/10/19 00:33:40;;;;;;;0.60;0.60;;;13.40;99.90;;;;;;5031796;28;20532;-60
2023/10/19 00:36:12;;;;;;;0.50;0.50;;;13.50;99.90;;;;;;5031910;28;20192;-58
2023/10/19 00:38:40;;;;;;;0.60;0.60;;;13.40;99.90;;;;;;5032220;28;20559;-60
2023/10/19 00:43:42;;;;;;;0.60;0.50;;;13.20;99.90;;;;;;5031871;28;20881;-60
2023/10/19 00:48:55;;;;;;;2.60;1.33;;;13.20;99.90;;;;;;5031619;28;20550;-59
2023/10/19 00:54:08;;;;;;;1.17;1.00;;;13.20;99.90;;;;;;5031963;28;20472;-60
2023/10/19 00:56:35;;;;;;;0.93;0.83;;;13.30;99.90;;;;;;5031524;28;20871;-60
2023/10/19 01:01:49;;;;;;;1.03;0.70;;;13.40;99.90;;;;;;5031628;28;20500;-61
2023/10/19 01:04:23;;;;;;;0.63;0.63;;;13.40;99.90;;;;;;5031413;28;20471;-59
2023/10/19 01:09:34;;;;;;;0.80;0.80;;;13.50;99.90;;;;;;5031951;28;20420;-60
2023/10/19 01:12:21;;;;;;;0.40;0.40;;;13.50;99.90;;;;;;5031318;28;20452;-60
2023/10/19 01:15:00;;;;;;;0.93;0.93;;;13.40;99.90;;;;;;5031666;28;20420;-58
2023/10/19 01:17:26;;;;;;;2.33;1.07;;;13.40;99.90;;;;;;5030949;28;20456;-60
2023/10/19 01:19:52;;;;;;;1.47;1.47;;;13.50;99.90;;;;;;5031371;28;20801;-60
2023/10/19 01:22:18;;;;;;;1.07;0.70;;;13.50;99.90;;;;;;5031250;28;20414;-60
2023/10/19 01:24:44;;;;;;;0.70;0.70;;;13.60;99.90;;;;;;5031131;28;20489;-59
2023/10/19 01:27:10;;;;;;;0.60;0.60;;;13.60;99.90;;;;;;5030926;28;20661;-59
2023/10/19 01:29:37;;;;;;;1.47;1.00;;;13.60;99.90;;;;;;5031375;28;20249;-58
2023/10/19 01:32:08;;;;;;;0.97;0.90;;;13.60;99.90;;;;;;5031209;28;20452;-58
2023/10/19 01:34:35;;;;;;;1.53;1.40;;;13.60;99.90;;;;;;5031183;28;20418;-57
2023/10/19 01:37:04;;;;;;;0.93;0.73;;;13.60;99.90;;;;;;5030589;28;20437;-60
2023/10/19 01:39:42;;;;;;;0.87;0.80;;;13.70;99.90;;;;;;5031320;28;20795;-60
2023/10/19 01:42:08;;;;;;;1.80;0.97;;;13.70;99.90;;;;;;5031258;28;20445;-60
2023/10/19 01:44:35;;;;;;;0.73;0.73;;;13.80;99.90;;;;;;5031136;28;20445;-59
2023/10/19 01:47:01;;;;;;;0.93;0.70;;;13.80;99.90;;;;;;5030730;28;20463;-60
2023/10/19 01:49:30;;;;;;;2.30;1.40;;;13.70;99.90;;;;;;5030978;28;20460;-58
2023/10/19 01:51:56;;;;;;;1.23;1.03;;;13.70;99.90;;;;;;5031431;28;20793;-60
2023/10/19 01:54:24;;;;;;;1.50;0.80;;;13.70;99.90;;;;;;5034657;28;20501;-59
2023/10/19 01:56:57;;;;;;;1.00;0.83;;;13.80;99.90;;;;;;5034611;28;20203;-59
2023/10/19 01:59:27;;;;;;;0.50;0.50;;;13.80;99.90;;;;;;5034550;28;20402;-60
2023/10/19 02:01:54;;;;;;;1.53;0.90;;;13.90;99.90;;;;;;5034985;28;20416;-60
2023/10/19 02:04:21;;;;;;;1.13;0.77;;;13.90;99.90;;;;;;5035105;28;20440;-60
2023/10/19 02:06:48;;;;;;;1.47;0.97;;;13.80;99.90;;;;;;5034666;28;20808;-60
2023/10/19 02:11:48;;;;;;;1.87;1.77;;;13.90;99.90;;;;;;5034184;28;20893;-60
2023/10/19 02:14:15;;;;;;;0.93;0.77;;;13.90;99.90;;;;;;5034351;28;20402;-60
2023/10/19 02:16:43;;;;;;;0.80;0.80;;;14.00;99.90;;;;;;5033825;28;20478;-60
2023/10/19 02:19:09;;;;;;;2.20;1.13;;;13.90;99.90;;;;;;5033922;28;20405;-60
2023/10/19 02:21:41;;;;;;;1.40;1.27;;;13.90;99.90;;;;;;5034249;28;20420;-59
2023/10/19 02:24:08;;;;;;;1.20;1.20;;;13.90;99.90;;;;;;5032813;28;20816;-60
2023/10/19 02:26:34;;;;;;;0.67;0.67;;;14.00;99.90;;;;;;5034051;28;20461;-60
2023/10/19 02:29:00;;;;;;;1.07;0.70;;;14.00;99.90;;;;;;5034195;28;20779;-58
2023/10/19 02:31:26;;;;;;;0.70;0.60;;;14.00;99.90;;;;;;5033909;28;20504;-59
2023/10/19 02:33:58;;;;;;;0.70;0.70;;;14.00;99.90;;;;;;5034211;28;20189;-60
2023/10/19 02:36:28;;;;;;;0.67;0.67;;;14.00;99.90;;;;;;5033786;28;20439;-60
2023/10/19 02:38:58;;;;;;;0.83;0.83;;;14.00;99.90;;;;;;5033779;28;20501;-58
2023/10/19 02:41:28;;;;;;;0.50;0.50;;;14.00;99.90;;;;;;5033858;28;20862;-60
2023/10/19 02:44:01;;;;;;;1.03;1.03;;;14.00;99.90;;;;;;5034083;28;20422;-60
2023/10/19 02:46:28;;;;;;;1.30;0.83;;;14.00;99.90;;;;;;5033634;28;20862;-57
2023/10/19 02:48:54;;;;;;;0.60;0.60;;;14.00;99.90;;;;;;5033557;28;20444;-60
2023/10/19 02:51:20;;;;;;;1.00;0.60;;;14.00;99.90;;;;;;5033583;28;20415;-57
2023/10/19 02:53:46;;;;;;;2.20;0.90;;;14.00;99.90;;;;;;5033611;28;20410;-58
2023/10/19 02:56:19;;;;;;;2.47;1.00;;;13.90;99.90;;;;;;5033410;28;20689;-60
2023/10/19 02:58:48;;;;;;;4.77;0.93;;;13.90;99.90;;;;;;5033564;28;20783;-58
2023/10/19 03:01:24;;;;;;;2.00;1.80;;;13.80;99.90;;;;;;5033483;28;20413;-60
2023/10/19 03:03:53;;;;;;;0.80;0.80;;;13.70;99.90;;;;;;5032933;28;20921;-60
2023/10/19 03:06:21;;;;;;;0.60;0.60;;;13.70;99.90;;;;;;5033044;28;20527;-58
2023/10/19 03:08:57;;;;;;;1.10;1.00;;;13.70;99.90;;;;;;5033075;28;20493;-60
2023/10/19 03:11:24;;;;;;;0.90;0.80;;;13.70;99.90;;;;;;5033736;28;20414;-58
2023/10/19 03:13:50;;;;;;;1.23;0.80;;;13.70;99.90;;;;;;5033094;28;20442;-58
2023/10/19 03:16:17;;;;;;;0.83;0.80;;;13.70;99.90;;;;;;5032863;28;20461;-60
2023/10/19 03:18:43;;;;;;;0.77;0.60;;;13.60;99.90;;;;;;5032661;28;20199;-58
2023/10/19 03:21:11;;;;;;;0.90;0.90;;;13.60;99.90;;;;;;5033033;28;20468;-59
2023/10/19 03:23:37;;;;;;;2.03;1.93;;;13.50;99.90;;;;;;5033524;28;20183;-60
2023/10/19 03:26:23;;;;;;;0.90;0.90;;;13.50;99.90;;;;;;5033867;28;20460;-60
2023/10/19 03:28:54;;;;;;;1.33;1.23;;;13.50;99.90;;;;;;5032794;28;20405;-60
2023/10/19 03:31:25;;;;;;;1.10;0.97;;;13.50;99.90;;;;;;5033356;28;20811;-60
2023/10/19 03:33:54;;;;;;;1.40;1.30;;;13.50;99.90;;;;;;5032938;28;20415;-60
2023/10/19 03:36:24;;;;;;;0.60;0.60;;;13.60;99.90;;;;;;5032409;28;20556;-60
2023/10/19 03:38:53;;;;;;;1.23;0.97;;;13.70;99.90;;;;;;5032780;28;20406;-60
2023/10/19 03:41:26;;;;;;;0.80;0.80;;;13.70;99.90;;;;;;5032640;28;20406;-59
2023/10/19 03:43:57;;;;;;;2.67;0.70;;;13.60;99.90;;;;;;5014947;28;20429;-60
2023/10/19 03:46:30;;;;;;;0.80;0.80;;;13.60;99.90;;;;;;5032336;28;20469;-60
2023/10/19 03:49:03;;;;;;;0.70;0.70;;;13.60;99.90;;;;;;5032458;28;20433;-60
2023/10/19 03:51:39;;;;;;;1.60;0.93;;;13.60;99.90;;;;;;5032457;28;20457;-60
2023/10/19 03:54:21;;;;;;;10.60;0.90;;;13.60;99.90;;;;;;5032365;28;20476;-58
2023/10/19 03:56:49;;;;;;;1.37;1.27;;;13.60;99.90;;;;;;5032110;28;20432;-60
2023/10/19 03:59:15;;;;;;;1.27;0.90;;;13.70;99.90;;;;;;5032206;28;20412;-60
2023/10/19 04:01:43;;;;;;;1.83;1.23;;;13.70;99.90;;;;;;5014663;28;20453;-58
2023/10/19 04:04:12;;;;;;;2.73;1.90;;;13.60;99.90;;;;;;5032572;28;20406;-60
2023/10/19 04:06:38;;;;;;;1.90;1.47;;;13.60;99.90;;;;;;5032019;28;21065;-57
2023/10/19 04:09:05;;;;;;;0.60;0.60;;;13.60;99.90;;;;;;5031892;28;20451;-61
2023/10/19 04:11:48;;;;;;;0.73;0.60;;;13.60;99.90;;;;;;5032303;28;20417;-61
2023/10/19 04:14:18;;;;;;;1.10;1.10;;;13.60;99.90;;;;;;5032148;28;20434;-58
2023/10/19 04:16:44;;;;;;;3.13;0.93;;;13.50;99.90;;;;;;5031371;28;20458;-61
2023/10/19 04:19:16;;;;;;;0.70;0.70;;;13.50;99.90;;;;;;5031737;28;20821;-60
2023/10/19 04:21:46;;;;;;;2.20;0.80;;;13.60;99.90;;;;;;5032058;28;20250;-61
2023/10/19 04:24:12;;;;;;;0.93;0.93;;;13.60;99.90;;;;;;5032185;28;20405;-58
2023/10/19 04:26:38;;;;;;;1.03;0.87;;;13.60;99.90;;;;;;5031473;28;20489;-60
2023/10/19 04:29:11;;;;;;;1.80;1.17;;;13.60;99.90;;;;;;5031395;28;20429;-61
2023/10/19 04:31:55;;;;;;;0.77;0.77;;;13.60;99.90;;;;;;5031864;28;20414;-60
2023/10/19 04:34:21;;;;;;;0.80;0.80;;;13.60;99.90;;;;;;5031843;28;20852;-59
2023/10/19 04:36:52;;;;;;;0.70;0.70;;;13.70;99.90;;;;;;5031642;28;20480;-59
2023/10/19 04:39:19;;;;;;;1.00;1.00;;;13.70;99.90;;;;;;5031801;28;20409;-61
2023/10/19 04:41:45;;;;;;;2.00;1.17;;;13.60;99.90;;;;;;5031731;28;20448;-59
2023/10/19 04:44:11;;;;;;;1.10;0.90;;;13.60;99.90;;;;;;5031746;28;20925;-61
2023/10/19 04:46:37;;;;;;;3.20;0.67;;;13.60;99.90;;;;;;5031978;28;20457;-61
2023/10/19 04:49:03;;;;;;;1.07;0.97;;;13.60;99.90;;;;;;5032779;28;20794;-61
2023/10/19 04:51:29;;;;;;;1.27;1.17;;;13.70;99.90;;;;;;5014143;28;20907;-61
2023/10/19 04:53:55;;;;;;;0.63;0.63;;;13.70;99.90;;;;;;5031779;28;20801;-61
2023/10/19 04:56:21;;;;;;;1.50;1.40;;;13.60;99.90;;;;;;5031333;28;20435;-61
2023/10/19 04:58:47;;;;;;;0.67;0.67;;;13.60;99.90;;;;;;5031816;28;20410;-62
2023/10/19 05:01:14;;;;;;;0.60;0.60;;;13.60;99.90;;;;;;5031915;28;20410;-61
2023/10/19 05:03:40;;;;;;;1.20;1.10;;;13.60;99.90;;;;;;5031690;28;20421;-60
2023/10/19 05:06:06;;;;;;;1.10;1.00;;;13.70;99.90;;;;;;5031196;28;20471;-61
2023/10/19 05:08:32;;;;;;;1.43;0.70;;;13.60;99.90;;;;;;5031371;28;20459;-60
2023/10/19 05:10:59;;;;;;;1.03;0.93;;;13.60;99.90;;;;;;5031305;28;20186;-60
2023/10/19 05:13:26;;;;;;;1.27;0.90;;;13.60;99.90;;;;;;5031690;28;20432;-61
2023/10/19 05:15:56;;;;;;;1.00;1.00;;;13.60;99.90;;;;;;5031260;28;21080;-61
2023/10/19 05:18:22;;;;;;;1.20;1.10;;;13.60;99.90;;;;;;5031227;28;20432;-61
2023/10/19 05:20:49;;;;;;;1.10;1.00;;;13.60;99.90;;;;;;5031357;28;20406;-61
2023/10/19 05:23:14;;;;;;;0.77;0.77;;;13.60;99.90;;;;;;5031281;28;20414;-60
2023/10/19 05:25:40;;;;;;;0.70;0.70;;;13.70;99.90;;;;;;5031252;28;20453;-61
2023/10/19 05:28:07;;;;;;;0.90;0.90;;;13.60;99.90;;;;;;5032651;28;20173;-60
2023/10/19 05:30:35;;;;;;;1.33;0.97;;;13.60;99.90;;;;;;5035134;28;20400;-61
2023/10/19 05:33:03;;;;;;;9.00;1.97;;;13.70;99.90;;;;;;5035304;28;20414;-60
2023/10/19 05:35:29;;;;;;;0.50;0.47;;;13.60;99.90;;;;;;5035096;28;20429;-60
2023/10/19 05:37:56;;;;;;;2.07;1.97;;;13.60;99.90;;;;;;5034531;28;21020;-60
2023/10/19 05:40:24;;;;;;;0.60;0.60;;;13.60;99.90;;;;;;5035252;28;20786;-61
2023/10/19 05:42:49;;;;;;;0.83;0.83;;;13.60;99.90;;;;;;5034691;28;20988;-61
2023/10/19 05:45:18;;;;;;;1.03;0.60;;;13.60;99.90;;;;;;5034630;28;20445;-61
2023/10/19 05:47:44;;;;;;;0.47;0.47;;;13.50;99.90;;;;;;5034527;28;20678;-61
2023/10/19 05:50:14;;;;;;;0.90;0.70;;;13.40;99.90;;;;;;5034865;28;20946;-61
2023/10/19 05:52:42;;;;;;;0.87;0.70;;;13.50;99.90;;;;;;5034629;28;20450;-60
2023/10/19 05:55:09;;;;;;;0.70;0.70;;;13.50;99.90;;;;;;5034487;28;20471;-61
2023/10/19 05:57:35;;;;;;;1.17;0.80;;;13.50;99.90;;;;;;5034572;28;20820;-61
2023/10/19 06:00:01;;;;;;;0.57;0.57;;;13.50;99.90;;;;;;5034394;28;20927;-60
2023/10/19 06:02:27;;;;;;;0.67;0.67;;;13.50;99.90;;;;;;5034625;28;20417;-61
2023/10/19 06:04:53;;;;;;;0.60;0.60;;;13.50;99.90;;;;;;5034113;28;20448;-60
2023/10/19 06:07:18;;;;;;;0.90;0.90;;;13.50;99.90;;;;;;5033686;28;20607;-61
2023/10/19 06:09:44;;;;;;;0.53;0.53;;;13.50;99.90;;;;;;5036414;28;20252;-61
2023/10/19 06:12:09;;;;;;;1.17;1.07;;;13.50;99.90;;;;;;5034736;28;20266;-61
2023/10/19 06:14:35;;;;;;;1.13;1.10;;;13.50;99.90;;;;;;5034518;28;20221;-60
2023/10/19 06:17:01;;;;;;;1.13;0.67;;;13.50;99.90;;;;;;5033742;28;20289;-61
2023/10/19 06:19:27;;;;;;;0.43;0.43;;;13.60;99.90;;;;;;5034352;28;20238;-61
2023/10/19 06:21:52;;;;;;;0.60;0.50;;;13.60;99.90;;;;;;5034281;28;20402;-61
2023/10/19 06:24:18;;;;;;;0.60;0.60;;;13.60;99.90;;;;;;5034115;28;20401;-61
2023/10/19 06:26:44;;;;;;;1.23;1.13;;;13.60;99.90;;;;;;5034464;28;20280;-61
2023/10/19 06:29:10;;;;;;;0.97;0.53;;;13.60;99.90;;;;;;5033656;28;20410;-61
2023/10/19 06:31:36;;;;;;;0.60;0.60;;;13.60;99.90;;;;;;5033468;28;20275;-61
2023/10/19 06:34:01;;;;;;;2.10;1.47;;;13.60;99.90;;;;;;5033713;28;20585;-60
2023/10/19 06:36:31;;;;;;;1.00;1.00;;;13.60;99.90;;;;;;5033515;28;20465;-59
2023/10/19 06:38:57;;;;;;;0.90;0.70;;;13.70;99.90;;;;;;5033800;28;20175;-60
2023/10/19 06:41:23;;;;;;;1.13;0.70;;;13.70;99.90;;;;;;5034240;28;20416;-60
2023/10/19 06:43:49;;;;;;;0.57;0.57;;;13.70;99.90;;;;;;5033959;28;20175;-59
2023/10/19 06:46:15;;;;;;;1.47;0.80;;;13.80;99.90;;;;;;5033325;28;20453;-59
2023/10/19 06:48:42;;;;;;;0.50;0.50;;;13.90;99.90;;;;;;5032535;28;20409;-60
2023/10/19 06:51:07;;;;;;;1.50;0.67;;;14.00;99.90;;;;;;5032665;28;20208;-60
2023/10/19 06:53:33;;;;;;;0.60;0.60;;;14.10;99.90;;;;;;5033096;28;20437;-61
2023/10/19 06:56:00;;;;;;;0.90;0.90;;;14.10;99.90;;;;;;5032772;28;20190;-60
2023/10/19 06:58:26;;;;;;;0.50;0.50;;;14.20;99.90;;;;;;5032951;28;20413;-61
2023/10/19 07:00:56;;;;;;;0.40;0.40;;;14.20;99.90;;;;;;5033277;28;20938;-60
2023/10/19 07:03:22;;;;;;;0.50;0.50;;;14.30;99.90;;;;;;5033117;28;20289;-60
2023/10/19 07:05:49;;;;;;;0.60;0.60;;;14.40;99.90;;;;;;5032650;28;20994;-61
2023/10/19 07:08:15;;;;;;;1.53;0.80;;;14.40;99.90;;;;;;5032637;28;20405;-60
2023/10/19 07:10:42;;;;;;;0.43;0.43;;;14.40;99.90;;;;;;5033079;28;20416;-61
2023/10/19 07:13:08;;;;;;;2.30;0.60;;;14.50;99.90;;;;;;5033158;28;20181;-60
2023/10/19 07:15:34;;;;;;;0.70;0.70;;;14.50;99.90;;;;;;5032926;28;20419;-59
2023/10/19 07:17:59;;;;;;;0.93;0.80;;;14.60;99.90;;;;;;5032647;28;20500;-58
2023/10/19 07:20:31;;;;;;;2.40;2.20;;;14.70;99.90;;;;;;5032395;28;20174;-61
2023/10/19 07:23:18;;;;;;;0.97;0.93;;;14.80;99.90;;;;;;5032712;28;20185;-60
2023/10/19 07:25:44;;;;;;;1.50;1.40;;;14.70;99.90;;;;;;5032781;28;20451;-60
2023/10/19 07:28:14;;;;;;;0.70;0.70;;;14.70;99.90;;;;;;5032517;28;20408;-59
2023/10/19 07:30:43;;;;;;;0.80;0.80;;;14.60;99.90;;;;;;5032805;28;20432;-59
2023/10/19 07:33:10;;;;;;;0.70;0.70;;;14.70;99.90;;;;;;5033608;28;20949;-61
2023/10/19 07:35:42;;;;;;;1.10;1.00;;;14.70;99.90;;;;;;5032525;28;20470;-61
2023/10/19 07:38:08;;;;;;;1.40;1.10;;;14.70;99.90;;;;;;5032427;28;20488;-60
2023/10/19 07:40:36;;;;;;;1.17;1.07;;;14.80;99.90;;;;;;5032629;28;20437;-61
2023/10/19 07:43:03;;;;;;;0.90;0.90;;;14.90;99.90;;;;;;5032378;28;20496;-61
2023/10/19 07:45:31;;;;;;;1.57;0.63;;;14.90;99.90;;;;;;5032849;28;20831;-61
2023/10/19 07:47:57;;;;;;;1.83;1.33;;;14.90;99.90;;;;;;5032380;28;20448;-59
2023/10/19 07:50:23;;;;;;;1.50;0.90;;;14.90;99.90;;;;;;5031983;28;20409;-61
2023/10/19 07:52:53;;;;;;;3.33;1.20;;;15.00;99.90;;;;;;5032331;28;20423;-61
2023/10/19 07:55:23;;;;;;;2.23;1.40;;;15.10;99.90;;;;;;5032442;28;20428;-60
2023/10/19 07:57:52;;;;;;;0.80;0.80;;;15.10;99.90;;;;;;5032002;28;20487;-61
2023/10/19 08:00:19;;;;;;;1.10;1.00;;;15.20;99.90;;;;;;5032804;28;20408;-61
2023/10/19 08:02:45;;;;;;;1.20;1.10;;;15.30;99.90;;;;;;5032345;28;20413;-60
2023/10/19 08:05:15;;;;;;;2.53;1.27;;;15.30;99.90;;;;;;5032053;28;20481;-61
2023/10/19 08:07:46;;;;;;;2.20;1.00;;;15.30;99.90;;;;;;5031775;28;20457;-61
2023/10/19 08:10:13;;;;;;;0.93;0.80;;;15.40;99.90;;;;;;5032044;28;20829;-61
2023/10/19 08:12:43;;;;;;;1.10;1.10;;;15.40;99.90;;;;;;5032100;28;20929;-58
2023/10/19 08:15:13;;;;;;;0.80;0.73;;;15.50;99.90;;;;;;5031921;28;20432;-61
2023/10/19 08:17:40;;;;;;;1.27;1.27;;;15.50;99.90;;;;;;5031778;28;20457;-61
2023/10/19 08:20:15;;;;;;;0.50;0.50;;;15.60;99.90;;;;;;5032083;28;20860;-60
2023/10/19 08:22:42;;;;;;;1.50;1.40;;;15.70;99.90;;;;;;5031948;28;20432;-60
2023/10/19 08:25:11;;;;;;;0.83;0.83;;;15.80;99.90;;;;;;5031699;28;20456;-61
2023/10/19 08:27:49;;;;;;;1.23;0.87;;;15.90;99.90;;;;;;5031511;28;20797;-60
2023/10/19 08:30:17;;;;;;;0.93;0.93;;;15.80;99.90;;;;;;5032247;28;20459;-59
2023/10/19 08:32:47;;;;;;;1.50;1.37;;;15.90;99.90;;;;;;5032450;28;20405;-59
2023/10/19 08:35:14;;;;;;;1.27;0.93;;;15.90;99.90;;;;;;5014850;28;20789;-60
2023/10/19 08:37:41;;;;;;;1.00;0.90;;;16.00;99.90;;;;;;5031877;28;20414;-60
2023/10/19 08:40:13;;;;;;;2.40;1.20;;;16.00;99.90;;;;;;5032146;28;20432;-58
2023/10/19 08:42:40;;;;;;;0.97;0.90;;;16.00;99.90;;;;;;5032009;28;20431;-59
2023/10/19 08:45:08;;;;;;;0.70;0.70;;;16.00;99.90;;;;;;5031545;28;20449;-61
2023/10/19 08:47:37;;;;;;;1.43;1.33;;;16.00;99.90;;;;;;5031449;28;20421;-58
2023/10/19 08:50:05;;;;;;;0.53;0.53;;;15.90;99.90;;;;;;5031745;28;20544;-60
2023/10/19 08:52:32;;;;;;;0.90;0.90;;;15.90;99.90;;;;;;5032246;28;20409;-61
2023/10/19 08:54:57;;;;;;;2.50;1.03;;;16.00;99.90;;;;;;5032045;28;20405;-61
2023/10/19 08:57:23;;;;;;;0.70;0.70;;;16.10;99.90;;;;;;5031776;28;20461;-61
2023/10/19 08:59:49;;;;;;;1.33;1.00;;;16.20;99.90;;;;;;5031854;28;20173;-61
2023/10/19 09:02:16;;;;;;;6.27;0.80;;;16.20;99.90;;;;;;5032246;28;20413;-61
2023/10/19 09:04:47;;;;;;;0.50;0.50;;;16.30;99.90;;;;;;5035860;28;20244;-61
2023/10/19 09:07:16;;;;;;;0.83;0.83;;;16.30;99.90;;;;;;5035237;28;20418;-61
2023/10/19 09:09:41;;;;;;;0.80;0.80;;;16.20;99.90;;;;;;5035679;28;20406;-61
2023/10/19 09:12:08;;;;;;;0.60;0.60;;;16.10;99.90;;;;;;5035957;28;20402;-61
2023/10/19 09:14:41;;;;;;;0.40;0.40;;;16.00;99.90;;;;;;5035865;28;20171;-61
2023/10/19 09:17:07;;;;;;;0.50;0.47;;;15.90;99.90;;;;;;5034900;28;20453;-61
2023/10/19 09:19:41;;;;;;;1.43;1.00;;;15.90;99.90;;;;;;5035558;28;20402;-61
2023/10/19 09:22:16;;;;;;;0.97;0.70;;;15.80;99.90;;;;;;5035461;28;20413;-61
2023/10/19 09:24:45;;;;;;;0.83;0.83;;;15.80;99.90;;;;;;5036102;28;20408;-61
2023/10/19 09:27:12;;;;;;;1.50;0.93;;;15.80;99.90;;;;;;5035016;28;20822;-61
2023/10/19 09:29:38;;;;;;;2.00;0.87;;;15.80;99.90;;;;;;5035161;28;20424;-61
2023/10/19 09:32:06;;;;;;;0.67;0.67;;;15.90;99.90;;;;;;5035137;28;20413;-61
2023/10/19 09:34:33;;;;;;;0.83;0.80;;;15.90;99.90;;;;;;5035120;28;20449;-61
2023/10/19 09:37:03;;;;;;;0.60;0.60;;;16.00;99.90;;;;;;5035037;28;20839;-61
2023/10/19 09:39:35;;;;;;;2.30;1.80;;;16.10;99.90;;;;;;5035609;28;20405;-62
2023/10/19 09:42:16;;;;;;;1.13;0.80;;;16.30;99.90;;;;;;5034985;28;20409;-59
2023/10/19 09:44:44;;;;;;;2.30;1.00;;;16.60;99.90;;;;;;5034638;28;20463;-59
2023/10/19 09:47:23;;;;;;;1.03;0.80;;;16.70;99.90;;;;;;5034341;28;20430;-59
2023/10/19 09:49:50;;;;;;;2.80;2.60;;;16.80;99.90;;;;;;5016888;28;20409;-59
2023/10/19 09:52:17;;;;;;;1.10;1.00;;;16.80;99.90;;;;;;5034485;28;20496;-59
2023/10/19 09:54:52;;;;;;;0.80;0.80;;;16.90;99.90;;;;;;5034763;28;20820;-59
2023/10/19 09:57:34;;;;;;;0.70;0.70;;;17.20;99.90;;;;;;5034136;28;20425;-59
2023/10/19 10:00:12;;;;;;;1.10;0.93;;;17.30;99.90;;;;;;5034450;28;20781;-59
2023/10/19 10:02:47;;;;;;;9.13;1.23;;;17.40;99.90;;;;;;5034320;28;20416;-59
2023/10/19 10:05:43;;;;;;;7.20;1.03;;;17.60;99.90;;;;;;5034224;28;20790;-59
2023/10/19 10:08:17;;;;;;;0.60;0.60;;;17.80;99.90;;;;;;5033973;28;20452;-58
2023/10/19 10:10:47;;;;;;;1.00;1.00;;;17.90;99.90;;;;;;5034255;28;20402;-59
2023/10/19 10:13:30;;;;;;;1.00;0.90;;;18.10;99.90;;;;;;5033509;28;20416;-58
2023/10/19 10:16:15;;;;;;;0.77;0.77;;;18.30;99.90;;;;;;5033735;28;21360;-59
2023/10/19 10:18:41;;;;;;;1.43;0.77;;;18.40;99.90;;;;;;5034247;28;20401;-59
2023/10/19 10:21:15;;;;;;;0.70;0.70;;;18.40;99.90;;;;;;5034033;28;20420;-59
2023/10/19 10:23:49;;;;;;;1.00;1.00;;;18.40;99.90;;;;;;5033903;28;20419;-59
2023/10/19 10:26:17;;;;;;;1.10;1.00;;;18.40;99.90;;;;;;5033689;28;20490;-59
2023/10/19 10:29:11;;;;;;;1.40;1.03;;;18.60;99.90;;;;;;5033860;28;20409;-58
2023/10/19 10:31:45;;;;;;;0.93;0.93;;;18.80;99.90;;;;;;5019054;28;20532;-58
2023/10/19 10:34:32;;;;;;;0.70;0.70;;;19.10;99.90;;;;;;5033990;28;20506;-58
2023/10/19 10:37:02;;;;;;;1.47;0.93;;;19.20;99.90;;;;;;5032988;28;20445;-58
2023/10/19 10:39:34;;;;;;;1.63;0.70;;;19.40;99.90;;;;;;5033697;28;20409;-59
2023/10/19 10:42:03;;;;;;;0.60;0.57;;;19.50;99.90;;;;;;5033610;28;20905;-58
2023/10/19 10:44:52;;;;;;;0.60;0.50;;;19.60;99.90;;;;;;5033514;28;20421;-59
2023/10/19 10:47:22;;;;;;;0.90;0.80;;;20.00;99.90;;;;;;5033330;28;20493;-59
2023/10/19 10:49:59;;;;;;;0.80;0.80;;;20.40;99.90;;;;;;5033438;28;20923;-59
2023/10/19 10:52:28;;;;;;;0.90;0.60;;;20.50;99.80;;;;;;5033447;28;20784;-59
2023/10/19 10:54:55;;;;;;;0.50;0.50;;;20.30;99.90;;;;;;5033232;28;20500;-59
2023/10/19 10:57:21;;;;;;;0.77;0.60;;;20.00;99.90;;;;;;5032923;28;20440;-59
2023/10/19 10:59:46;;;;;;;0.63;0.50;;;19.60;99.90;;;;;;5033442;28;20419;-59
2023/10/19 11:02:20;;;;;;;0.40;0.40;;;19.40;99.90;;;;;;5033168;28;20191;-59
2023/10/19 11:04:46;;;;;;;0.50;0.50;;;19.30;99.90;;;;;;5033182;28;20195;-59
2023/10/19 11:07:21;;;;;;;2.37;0.70;;;19.10;99.90;;;;;;5032766;28;20956;-59
2023/10/19 11:09:47;;;;;;;0.43;0.43;;;18.80;99.90;;;;;;5033342;28;20174;-59
2023/10/19 11:12:15;;;;;;;1.40;0.60;;;18.60;99.90;;;;;;5033070;28;20405;-59
2023/10/19 11:14:53;;;;;;;0.67;0.50;;;18.40;99.90;;;;;;5033207;28;20414;-59
2023/10/19 11:17:19;;;;;;;0.50;0.40;;;18.30;99.90;;;;;;5032456;28;20460;-59
2023/10/19 11:19:45;;;;;;;1.20;1.10;;;18.30;99.90;;;;;;5032798;28;20471;-59
2023/10/19 11:22:11;;;;;;;0.50;0.50;;;18.30;99.90;;;;;;5032882;28;20472;-59
2023/10/19 11:24:39;;;;;;;0.40;0.40;;;18.40;99.90;;;;;;5032502;28;20607;-59
2023/10/19 11:27:07;;;;;;;0.80;0.80;;;18.50;99.90;;;;;;5032104;28;20516;-59
2023/10/19 11:29:33;;;;;;;0.57;0.57;;;18.50;99.90;;;;;;5032790;28;20410;-59
2023/10/19 11:32:02;;;;;;;0.97;0.60;;;18.60;99.90;;;;;;5032292;28;20926;-59
2023/10/19 11:34:34;;;;;;;0.67;0.63;;;18.60;99.90;;;;;;5032066;28;20419;-59
2023/10/19 11:37:00;;;;;;;0.63;0.40;;;18.60;99.90;;;;;;5031965;28;20512;-59
2023/10/19 11:39:26;;;;;;;0.70;0.70;;;18.70;99.90;;;;;;5032899;28;20444;-59
2023/10/19 11:41:53;;;;;;;0.80;0.80;;;18.80;99.90;;;;;;5032800;28;20182;-59
2023/10/19 11:44:19;;;;;;;1.40;0.57;;;18.80;99.90;;;;;;5032495;28;20414;-59
2023/10/19 11:46:45;;;;;;;0.50;0.40;;;18.70;99.90;;;;;;5032057;28;20487;-59
2023/10/19 11:49:11;;;;;;;0.57;0.57;;;18.70;99.90;;;;;;5032121;28;20416;-59
2023/10/19 11:51:37;;;;;;;0.47;0.47;;;18.40;99.90;;;;;;5032246;28;20178;-59
2023/10/19 11:54:06;;;;;;;1.03;1.03;;;18.20;99.90;;;;;;5032149;28;20424;-59
2023/10/19 11:56:31;;;;;;;0.40;0.40;;;18.00;99.90;;;;;;5031926;28;20451;-59
2023/10/19 11:58:57;;;;;;;0.40;0.40;;;17.80;99.90;;;;;;5032052;28;20417;-59
2023/10/19 12:01:24;;;;;;;0.40;0.40;;;17.60;99.90;;;;;;5032022;28;20189;-59
2023/10/19 12:03:51;;;;;;;1.60;1.27;;;17.60;99.90;;;;;;5032162;28;20186;-59
2023/10/19 12:06:20;;;;;;;0.90;0.77;;;17.70;99.90;;;;;;5030851;28;20464;-58
2023/10/19 12:08:46;;;;;;;0.60;0.60;;;17.60;99.90;;;;;;5031673;28;20409;-59
2023/10/19 12:11:16;;;;;;;0.67;0.63;;;17.50;99.90;;;;;;5031889;28;20943;-59
2023/10/19 12:13:45;;;;;;;0.50;0.50;;;17.50;99.90;;;;;;5031992;28;20474;-59
2023/10/19 12:16:19;;;;;;;1.13;0.70;;;17.50;99.90;;;;;;5031330;28;20455;-59
2023/10/19 12:18:46;;;;;;;1.07;0.70;;;17.40;99.90;;;;;;5031764;28;20420;-59
2023/10/19 12:21:12;;;;;;;1.63;1.23;;;17.20;99.90;;;;;;5031811;28;20896;-59
2023/10/19 12:23:50;;;;;;;1.53;1.43;;;17.40;99.90;;;;;;5031751;28;20413;-59
2023/10/19 12:26:16;;;;;;;2.07;0.73;;;17.50;99.90;;;;;;5031695;28;20885;-58
2023/10/19 12:28:43;;;;;;;0.60;0.60;;;17.80;99.90;;;;;;5031852;28;20417;-59
2023/10/19 12:31:09;;;;;;;0.50;0.50;;;18.10;99.90;;;;;;5031683;28;20257;-59
2023/10/19 12:33:38;;;;;;;2.23;0.60;;;18.40;99.90;;;;;;5031685;28;20511;-59
2023/10/19 12:38:50;;;;;;;1.10;0.87;;;18.40;99.90;;;;;;5031713;28;20502;-58
2023/10/19 12:41:17;;;;;;;0.97;0.90;;;18.30;99.90;;;;;;5031482;28;20431;-59
2023/10/19 12:43:43;;;;;;;1.00;0.90;;;18.40;99.90;;;;;;5031734;28;20803;-59
2023/10/19 12:46:09;;;;;;;1.03;0.70;;;18.50;99.90;;;;;;5031258;28;20457;-59
2023/10/19 12:48:35;;;;;;;0.70;0.70;;;18.50;99.90;;;;;;5030809;28;20416;-59
2023/10/19 12:51:01;;;;;;;16.07;7.50;;;18.30;99.90;;;;;;5031274;28;20484;-59
2023/10/19 12:53:27;;;;;;;0.87;0.83;;;18.20;99.90;;;;;;5030871;28;20441;-58
2023/10/19 12:55:53;;;;;;;0.63;0.60;;;18.10;99.90;;;;;;5031098;28;20841;-58
2023/10/19 12:58:21;;;;;;;3.40;1.70;;;18.10;99.90;;;;;;5031162;28;20413;-59
2023/10/19 13:00:48;;;;;;;1.90;1.53;;;18.20;99.90;;;;;;5031376;28;20186;-58
2023/10/19 13:03:18;;;;;;;0.93;0.93;;;18.20;99.90;;;;;;5031287;28;20918;-59
2023/10/19 13:05:47;;;;;;;0.67;0.67;;;18.20;99.90;;;;;;5031208;28;20546;-59
2023/10/19 13:08:13;;;;;;;0.97;0.80;;;18.20;99.90;;;;;;5030941;28;20842;-59
2023/10/19 13:10:42;;;;;;;0.40;0.40;;;18.10;99.90;;;;;;5031527;28;20432;-59
2023/10/19 13:13:12;;;;;;;3.47;0.83;;;17.90;99.90;;;;;;5031268;28;20412;-59
2023/10/19 13:15:39;;;;;;;0.60;0.50;;;17.90;99.90;;;;;;5031050;28;20462;-59
2023/10/19 13:18:06;;;;;;;0.70;0.70;;;18.00;99.90;;;;;;5030996;28;20512;-59